Time;durP1;ratioP1;P1;durP2;ratioP2;P2;SDS_P1;SDS_P2;PMS_P1;PMS_P2;Temp;Humidity;BMP_temperature;BMP_pressure;BME280_temperature;BME280_humidity;BME280_pressure;Samples;Min_cycle;Max_cycle;Signal;HPM_P1;HPM_P2
2022/11/20 00:01:10;;;;;;;33.78;15.77;;;-3.20;99.90;;;;;;5092389;28;20087;-76
2022/11/20 00:03:36;;;;;;;30.15;15.80;;;-3.10;99.90;;;;;;5093248;28;20484;-75
2022/11/20 00:06:04;;;;;;;28.17;14.68;;;-3.00;99.90;;;;;;5093322;28;20047;-75
2022/11/20 00:08:29;;;;;;;28.05;15.93;;;-2.90;99.90;;;;;;5093482;28;20105;-75
2022/11/20 00:10:55;;;;;;;29.33;15.77;;;-2.80;99.90;;;;;;5092884;28;20048;-76
2022/11/20 00:13:20;;;;;;;27.73;16.17;;;-2.80;99.90;;;;;;5093127;28;20396;-75
2022/11/20 00:15:46;;;;;;;29.88;15.98;;;-2.70;99.90;;;;;;5093869;28;20128;-74
2022/11/20 00:18:11;;;;;;;28.67;15.23;;;-2.80;99.90;;;;;;5093442;28;20396;-75
2022/11/20 00:20:37;;;;;;;26.80;15.30;;;-2.90;99.90;;;;;;5092783;28;20124;-76
2022/11/20 00:23:03;;;;;;;27.77;14.57;;;-2.60;99.90;;;;;;5093442;28;20070;-75
2022/11/20 00:25:28;;;;;;;28.83;15.35;;;-2.50;99.90;;;;;;5093410;28;20056;-75
2022/11/20 00:27:54;;;;;;;24.80;14.13;;;-2.50;99.90;;;;;;5092155;28;20044;-76
2022/11/20 00:30:19;;;;;;;22.85;13.13;;;-2.40;99.90;;;;;;5093395;28;20360;-75
2022/11/20 00:32:45;;;;;;;21.25;12.15;;;-2.30;99.90;;;;;;5093825;28;20085;-76
2022/11/20 00:35:10;;;;;;;20.60;12.18;;;-3.10;99.90;;;;;;5092495;28;20045;-75
2022/11/20 00:37:36;;;;;;;26.40;12.75;;;-2.30;99.90;;;;;;5093312;28;20069;-75
2022/11/20 00:40:01;;;;;;;21.50;12.40;;;-2.30;99.90;;;;;;5092217;28;20040;-76
2022/11/20 00:42:27;;;;;;;22.08;12.57;;;-2.20;99.90;;;;;;5092047;28;20403;-75
2022/11/20 00:44:53;;;;;;;21.25;11.20;;;-2.20;99.90;;;;;;5093179;28;20392;-75
2022/11/20 00:47:18;;;;;;;17.75;10.68;;;-2.20;99.90;;;;;;5093020;28;20036;-75
2022/11/20 00:49:44;;;;;;;16.17;10.60;;;-2.20;99.90;;;;;;5093147;28;20410;-75
2022/11/20 00:52:09;;;;;;;18.45;10.20;;;-2.20;99.90;;;;;;5093168;28;20044;-75
2022/11/20 00:54:35;;;;;;;18.23;10.55;;;-2.10;99.90;;;;;;5093056;28;20044;-76
2022/11/20 00:57:00;;;;;;;17.63;10.82;;;-2.10;99.90;;;;;;5092800;28;20121;-75
2022/11/20 00:59:26;;;;;;;20.40;11.43;;;-2.40;99.90;;;;;;5093040;28;20043;-76
2022/11/20 01:01:52;;;;;;;18.35;10.68;;;-2.00;99.90;;;;;;5094489;28;20404;-76
2022/11/20 01:04:17;;;;;;;20.98;11.40;;;-1.90;99.90;;;;;;5096624;28;20047;-76
2022/11/20 01:06:43;;;;;;;20.13;10.60;;;-1.90;99.90;;;;;;5096569;28;20036;-76
2022/11/20 01:09:13;;;;;;;20.08;11.27;;;-1.80;99.90;;;;;;5096509;28;20070;-76
2022/11/20 01:11:44;;;;;;;17.90;10.68;;;-1.80;99.90;;;;;;5095277;28;20048;-75
2022/11/20 01:14:18;;;;;;;19.52;11.40;;;-1.80;99.90;;;;;;5095788;28;20127;-75
2022/11/20 01:16:46;;;;;;;17.80;11.20;;;-1.80;99.90;;;;;;5096751;28;20044;-76
2022/11/20 01:19:15;;;;;;;19.30;11.45;;;-1.80;99.90;;;;;;5096366;28;20075;-76
2022/11/20 01:21:43;;;;;;;24.83;12.63;;;-1.70;99.90;;;;;;5096040;28;20036;-76
2022/11/20 01:24:13;;;;;;;20.63;12.43;;;-1.60;99.90;;;;;;5096057;28;20056;-76
2022/11/20 01:26:40;;;;;;;19.75;11.23;;;-1.90;99.90;;;;;;5096109;28;20048;-76
2022/11/20 01:29:10;;;;;;;22.88;12.27;;;-1.70;99.90;;;;;;5096168;28;20043;-75
2022/11/20 01:31:37;;;;;;;26.73;14.85;;;-1.60;99.90;;;;;;5096016;28;20036;-75
2022/11/20 01:34:04;;;;;;;23.23;12.63;;;-1.60;99.90;;;;;;5096128;28;20073;-75
2022/11/20 01:36:31;;;;;;;20.30;11.60;;;-1.60;99.90;;;;;;5095901;28;20499;-76
2022/11/20 01:38:58;;;;;;;;;;;-1.60;99.90;;;;;;5096078;28;20048;-76
2022/11/20 01:44:14;;;;;;;21.77;13.07;;;-1.60;99.90;;;;;;5095931;28;20052;-75
2022/11/20 01:46:48;;;;;;;22.25;13.30;;;-0.40;99.90;;;;;;5096070;28;20040;-76
2022/11/20 01:49:23;;;;;;;22.40;13.00;;;-1.60;99.90;;;;;;5096217;28;20458;-75
2022/11/20 01:51:56;;;;;;;20.98;12.73;;;-1.50;99.90;;;;;;5096132;28;20050;-76
2022/11/20 01:54:29;;;;;;;18.00;10.98;;;-1.50;99.90;;;;;;5096189;28;20039;-76
2022/11/20 01:56:57;;;;;;;17.38;10.43;;;-1.50;99.90;;;;;;5095842;28;20505;-76
2022/11/20 01:59:24;;;;;;;19.83;11.77;;;-1.50;99.90;;;;;;5095831;28;20079;-76
2022/11/20 02:01:50;;;;;;;18.70;10.77;;;-1.40;99.90;;;;;;5095464;28;20043;-76
2022/11/20 02:04:17;;;;;;;18.25;10.68;;;-1.40;99.90;;;;;;5095831;28;20048;-76
2022/11/20 02:06:48;;;;;;;19.40;11.18;;;-1.40;99.90;;;;;;5095346;28;20040;-76
2022/11/20 02:09:14;;;;;;;22.67;11.60;;;-1.40;99.90;;;;;;5095405;28;20039;-76
2022/11/20 02:11:40;;;;;;;19.30;11.43;;;-1.30;99.90;;;;;;5094954;28;20051;-76
2022/11/20 02:14:06;;;;;;;21.33;11.13;;;-1.30;99.90;;;;;;5095394;28;20127;-76
2022/11/20 02:16:36;;;;;;;16.33;10.75;;;-1.30;99.90;;;;;;5094900;28;20472;-76
2022/11/20 02:19:04;;;;;;;17.40;10.50;;;-1.30;99.90;;;;;;5095165;28;20051;-76
2022/11/20 02:21:53;;;;;;;21.20;11.20;;;-1.30;99.90;;;;;;5095127;28;20182;-76
2022/11/20 02:24:21;;;;;;;17.95;11.35;;;-1.30;99.90;;;;;;5095128;28;20131;-76
2022/11/20 02:26:53;;;;;;;17.42;10.30;;;-1.30;99.90;;;;;;5094981;28;20055;-76
2022/11/20 02:29:47;;;;;;;17.23;10.98;;;-1.30;99.90;;;;;;5095062;28;20055;-76
2022/11/20 02:32:29;;;;;;;19.73;11.57;;;-1.30;99.90;;;;;;5087313;28;20518;-76
2022/11/20 02:34:55;;;;;;;19.17;10.95;;;-1.20;99.90;;;;;;5094687;28;20055;-77
2022/11/20 02:37:21;;;;;;;19.63;11.85;;;-1.20;99.90;;;;;;5094837;28;20044;-76
2022/11/20 02:39:49;;;;;;;18.33;10.97;;;-1.20;99.90;;;;;;5094852;28;20055;-76
2022/11/20 02:42:15;;;;;;;17.65;10.02;;;-1.20;99.90;;;;;;5095097;28;20286;-76
2022/11/20 02:44:41;;;;;;;17.23;10.32;;;-1.20;99.90;;;;;;5094692;28;20044;-76
2022/11/20 02:47:07;;;;;;;20.25;11.40;;;-1.20;99.90;;;;;;5095050;28;20059;-76
2022/11/20 02:49:32;;;;;;;19.10;10.85;;;-1.10;99.90;;;;;;5094627;28;20047;-75
2022/11/20 02:51:58;;;;;;;16.80;10.35;;;-1.10;99.90;;;;;;5094501;28;20051;-75
2022/11/20 02:54:24;;;;;;;19.02;11.05;;;-1.60;99.90;;;;;;5094493;28;20476;-75
2022/11/20 02:56:50;;;;;;;17.95;10.27;;;-1.10;99.90;;;;;;5094566;28;20047;-75
2022/11/20 02:59:15;;;;;;;16.70;10.95;;;-1.10;99.90;;;;;;5093831;28;20044;-78
2022/11/20 03:01:41;;;;;;;16.42;10.10;;;-1.00;99.90;;;;;;5094288;28;20040;-75
2022/11/20 03:04:07;;;;;;;19.35;11.07;;;-1.00;99.90;;;;;;5094301;28;20043;-75
2022/11/20 03:06:32;;;;;;;16.85;10.57;;;-1.00;99.90;;;;;;5094285;28;20521;-75
2022/11/20 03:08:58;;;;;;;18.23;10.10;;;-1.00;99.90;;;;;;5094635;28;20050;-75
2022/11/20 03:11:23;;;;;;;22.33;11.38;;;-0.50;99.90;;;;;;5094367;28;20040;-75
2022/11/20 03:13:49;;;;;;;15.75;10.07;;;-1.00;99.90;;;;;;5094124;28;20105;-75
2022/11/20 03:16:18;;;;;;;19.10;11.20;;;-1.10;99.90;;;;;;5094525;28;20113;-76
2022/11/20 03:18:44;;;;;;;18.75;10.35;;;-1.10;99.90;;;;;;5094017;28;20036;-75
2022/11/20 03:21:12;;;;;;;18.90;10.15;;;-1.10;99.90;;;;;;5093941;28;20138;-75
2022/11/20 03:23:38;;;;;;;17.70;10.57;;;-1.10;99.90;;;;;;5092662;28;20156;-76
2022/11/20 03:26:11;;;;;;;18.73;10.07;;;-1.10;99.90;;;;;;5093891;28;20040;-76
2022/11/20 03:28:36;;;;;;;15.23;9.88;;;-1.10;99.90;;;;;;5093175;28;20400;-76
2022/11/20 03:31:11;;;;;;;19.67;10.00;;;-1.10;99.90;;;;;;5093042;28;20036;-75
2022/11/20 03:33:37;;;;;;;16.23;10.43;;;-1.10;99.90;;;;;;5094006;28;20054;-75
2022/11/20 03:36:04;;;;;;;17.17;10.75;;;-1.10;99.90;;;;;;5093848;28;20089;-76
2022/11/20 03:38:31;;;;;;;19.17;10.80;;;-1.10;99.90;;;;;;5093886;28;20127;-76
2022/11/20 03:41:08;;;;;;;16.90;10.80;;;-1.10;99.90;;;;;;5093466;28;20087;-76
2022/11/20 03:43:34;;;;;;;20.70;11.93;;;-1.00;99.90;;;;;;5092761;28;20049;-77
2022/11/20 03:46:00;;;;;;;18.70;10.75;;;-1.00;99.90;;;;;;5093682;28;20379;-76
2022/11/20 03:48:26;;;;;;;19.23;10.53;;;-1.00;99.90;;;;;;5093635;28;20043;-75
2022/11/20 03:50:53;;;;;;;17.73;11.20;;;-0.90;99.90;;;;;;5093419;28;20040;-76
2022/11/20 03:53:19;;;;;;;18.45;11.32;;;-1.00;99.90;;;;;;5093435;28;20503;-76
2022/11/20 03:55:50;;;;;;;16.80;10.65;;;-1.00;99.90;;;;;;5093668;28;20044;-76
2022/11/20 03:58:16;;;;;;;16.60;10.85;;;-1.00;99.90;;;;;;5093627;28;20086;-75
2022/11/20 04:00:41;;;;;;;16.05;9.93;;;-1.00;99.90;;;;;;5093722;28;20133;-76
2022/11/20 04:03:07;;;;;;;20.10;11.55;;;-1.00;99.90;;;;;;5093531;28;20052;-76
2022/11/20 04:05:34;;;;;;;19.15;12.25;;;-0.90;99.90;;;;;;5093962;28;20044;-76
2022/11/20 04:07:59;;;;;;;15.50;10.75;;;-0.90;99.90;;;;;;5093539;28;20040;-76
2022/11/20 04:10:25;;;;;;;19.45;11.30;;;-0.90;99.90;;;;;;5093575;28;20390;-75
2022/11/20 04:12:51;;;;;;;18.23;11.35;;;-0.90;99.90;;;;;;5092040;28;20441;-76
2022/11/20 04:15:16;;;;;;;16.00;10.52;;;-0.90;99.90;;;;;;5093567;28;20075;-76
2022/11/20 04:17:42;;;;;;;16.85;10.30;;;-0.80;99.90;;;;;;5093521;28;20065;-75
2022/11/20 04:20:08;;;;;;;15.73;10.38;;;-0.80;99.90;;;;;;5093979;28;20047;-76
2022/11/20 04:22:33;;;;;;;20.48;10.85;;;-0.80;99.90;;;;;;5093480;28;20048;-76
2022/11/20 04:24:59;;;;;;;15.90;10.02;;;-0.80;99.90;;;;;;5092135;28;20165;-76
2022/11/20 04:27:25;;;;;;;17.50;10.27;;;-0.80;99.90;;;;;;5093356;28;20369;-76
2022/11/20 04:29:50;;;;;;;17.92;10.68;;;-0.80;99.90;;;;;;5093368;28;20078;-76
2022/11/20 04:32:16;;;;;;;20.13;10.73;;;-0.80;99.90;;;;;;5093320;28;20044;-76
2022/11/20 04:34:41;;;;;;;17.73;10.25;;;-0.70;99.90;;;;;;5093029;28;20081;-76
2022/11/20 04:37:07;;;;;;;15.88;10.13;;;-0.80;99.90;;;;;;5097259;28;20495;-76
2022/11/20 04:39:32;;;;;;;15.00;10.10;;;-0.70;99.90;;;;;;5096823;28;20140;-76
2022/11/20 04:44:42;;;;;;;16.27;10.73;;;-0.70;99.90;;;;;;5096890;28;20055;-76
2022/11/20 04:47:07;;;;;;;18.20;10.40;;;-0.20;99.90;;;;;;5096714;28;20162;-76
2022/11/20 04:49:33;;;;;;;15.38;9.43;;;-0.70;99.90;;;;;;5097375;28;20043;-76
2022/11/20 04:51:59;;;;;;;18.70;11.20;;;-0.60;99.90;;;;;;5096905;28;20039;-76
2022/11/20 04:54:25;;;;;;;19.75;10.90;;;-0.30;99.90;;;;;;5097240;28;20044;-76
2022/11/20 04:56:50;;;;;;;17.00;10.38;;;-0.30;99.90;;;;;;5096718;28;20032;-76
2022/11/20 04:59:16;;;;;;;16.25;10.07;;;-0.60;99.90;;;;;;5096433;28;20040;-76
2022/11/20 05:01:42;;;;;;;13.55;9.38;;;-0.60;99.90;;;;;;5096712;28;20044;-76
2022/11/20 05:04:07;;;;;;;17.02;9.93;;;-0.60;99.90;;;;;;5097096;28;20500;-76
2022/11/20 05:06:33;;;;;;;16.58;10.10;;;-0.60;99.90;;;;;;5096421;28;20044;-76
2022/11/20 05:08:59;;;;;;;15.13;10.18;;;-0.60;99.90;;;;;;5096625;28;20095;-76
2022/11/20 05:11:24;;;;;;;18.73;9.82;;;-0.60;99.90;;;;;;5096561;28;20403;-76
2022/11/20 05:13:51;;;;;;;16.35;10.10;;;-0.60;99.90;;;;;;5096530;28;20457;-76
2022/11/20 05:16:22;;;;;;;18.05;10.52;;;-0.60;99.90;;;;;;5096285;28;20052;-76
2022/11/20 05:18:48;;;;;;;18.65;11.45;;;-0.60;99.90;;;;;;5096391;28;20040;-76
2022/11/20 05:21:14;;;;;;;17.98;10.10;;;-0.60;99.90;;;;;;5096294;28;20040;-76
2022/11/20 05:23:41;;;;;;;17.75;10.55;;;-0.60;99.90;;;;;;5096308;28;20143;-76
2022/11/20 05:26:11;;;;;;;19.50;10.18;;;-0.60;99.90;;;;;;5094907;28;20048;-76
2022/11/20 05:28:37;;;;;;;17.00;10.73;;;-0.60;99.90;;;;;;5094904;28;20098;-76
2022/11/20 05:31:11;;;;;;;17.98;10.23;;;-0.20;99.90;;;;;;5095992;28;20036;-76
2022/11/20 05:33:40;;;;;;;18.17;10.73;;;-0.60;99.90;;;;;;5096177;28;20040;-77
2022/11/20 05:36:06;;;;;;;19.48;10.90;;;-0.60;99.90;;;;;;5096387;28;20099;-76
2022/11/20 05:38:32;;;;;;;18.17;10.85;;;-0.60;99.90;;;;;;5096276;28;20166;-76
2022/11/20 05:41:13;;;;;;;18.15;10.50;;;-0.60;99.90;;;;;;5096032;28;20404;-76
2022/11/20 05:43:41;;;;;;;17.33;9.82;;;-0.70;99.90;;;;;;5095830;28;20557;-76
2022/11/20 05:46:08;;;;;;;16.27;9.57;;;-0.60;99.90;;;;;;5096127;28;20047;-76
2022/11/20 05:48:35;;;;;;;16.00;9.98;;;-0.70;99.90;;;;;;5095078;28;20103;-76
2022/11/20 05:51:02;;;;;;;16.67;10.18;;;-0.60;99.90;;;;;;5095709;28;20491;-75
2022/11/20 05:53:29;;;;;;;16.33;10.32;;;-0.70;99.90;;;;;;5095510;28;20487;-76
2022/11/20 05:56:09;;;;;;;17.83;9.45;;;-0.70;99.90;;;;;;5094805;28;20121;-75
2022/11/20 05:58:36;;;;;;;14.77;9.65;;;-0.60;99.90;;;;;;5096023;28;20054;-76
2022/11/20 06:01:12;;;;;;;16.75;10.40;;;-0.60;99.90;;;;;;5094348;28;20040;-75
2022/11/20 06:03:38;;;;;;;16.13;9.45;;;-0.60;99.90;;;;;;5095541;28;20385;-76
2022/11/20 06:06:05;;;;;;;18.42;10.50;;;-0.60;99.90;;;;;;5094318;28;20119;-76
2022/11/20 06:08:32;;;;;;;18.35;10.63;;;-0.50;99.90;;;;;;5095061;28;20392;-76
2022/11/20 06:10:58;;;;;;;17.45;10.75;;;-0.50;99.90;;;;;;5095657;28;20048;-76
2022/11/20 06:13:24;;;;;;;17.55;10.57;;;-0.50;99.90;;;;;;5095255;28;20545;-75
2022/11/20 06:15:53;;;;;;;14.93;9.98;;;-1.20;99.90;;;;;;5094126;28;20040;-76
2022/11/20 06:18:19;;;;;;;20.80;12.00;;;-0.50;99.90;;;;;;5094339;28;20101;-75
2022/11/20 06:20:46;;;;;;;18.13;11.37;;;-0.40;99.90;;;;;;5095156;28;20040;-75
2022/11/20 06:23:12;;;;;;;16.98;11.13;;;-0.50;99.90;;;;;;5094880;28;20285;-78
2022/11/20 06:25:41;;;;;;;20.70;10.95;;;-0.50;99.90;;;;;;5094926;28;20104;-76
2022/11/20 06:28:08;;;;;;;20.15;11.00;;;-0.40;99.90;;;;;;5094604;28;20484;-76
2022/11/20 06:30:34;;;;;;;15.77;10.40;;;-0.50;99.90;;;;;;5094925;28;20082;-75
2022/11/20 06:33:00;;;;;;;17.83;10.50;;;-0.50;99.90;;;;;;5094634;28;20488;-77
2022/11/20 06:35:25;;;;;;;17.17;10.45;;;-0.40;99.90;;;;;;5094880;28;20051;-76
2022/11/20 06:37:51;;;;;;;19.48;11.40;;;-0.50;99.90;;;;;;5094930;28;20055;-76
2022/11/20 06:40:17;;;;;;;18.33;11.50;;;-0.40;99.90;;;;;;5094963;28;20391;-76
2022/11/20 06:42:42;;;;;;;18.63;10.68;;;-0.40;99.90;;;;;;5093537;28;20122;-82
2022/11/20 06:45:09;;;;;;;18.30;11.13;;;-0.40;99.90;;;;;;5095150;28;20107;-77
2022/11/20 06:47:34;;;;;;;16.67;10.38;;;-0.40;99.90;;;;;;5094484;28;20071;-76
2022/11/20 06:50:00;;;;;;;15.25;11.00;;;-0.40;99.90;;;;;;5094571;28;20044;-76
2022/11/20 06:52:26;;;;;;;16.83;10.00;;;-0.50;99.90;;;;;;5094214;28;20048;-76
2022/11/20 06:54:51;;;;;;;15.77;10.20;;;-0.50;99.90;;;;;;5094323;28;20055;-77
2022/11/20 06:57:17;;;;;;;14.80;10.27;;;-0.50;99.90;;;;;;5094290;28;20040;-74
2022/11/20 06:59:42;;;;;;;18.95;10.25;;;-0.50;99.90;;;;;;5093403;28;20133;-77
2022/11/20 07:02:11;;;;;;;16.40;10.32;;;-0.50;99.90;;;;;;5094558;28;20496;-77
2022/11/20 07:04:37;;;;;;;17.30;11.13;;;-0.50;99.90;;;;;;5094004;28;20047;-76
2022/11/20 07:07:03;;;;;;;18.17;11.00;;;-0.50;99.90;;;;;;5093895;28;20480;-75
2022/11/20 07:09:29;;;;;;;17.13;10.38;;;-0.50;99.90;;;;;;5094141;28;20050;-75
2022/11/20 07:11:54;;;;;;;17.90;10.05;;;-0.70;99.90;;;;;;5094600;28;20078;-75
2022/11/20 07:14:20;;;;;;;17.83;10.35;;;-0.50;99.90;;;;;;5093955;28;20083;-78
2022/11/20 07:16:45;;;;;;;25.40;10.88;;;-0.50;99.90;;;;;;5094285;28;20043;-78
2022/11/20 07:19:11;;;;;;;16.80;10.68;;;-0.50;99.90;;;;;;5094246;28;20472;-76
2022/11/20 07:21:37;;;;;;;17.00;10.05;;;-0.50;99.90;;;;;;5094177;28;20051;-76
2022/11/20 07:24:03;;;;;;;17.35;10.52;;;-0.50;99.90;;;;;;5093889;28;20468;-77
2022/11/20 07:26:28;;;;;;;18.77;10.80;;;-0.50;99.90;;;;;;5093979;28;20476;-77
2022/11/20 07:28:55;;;;;;;17.63;10.88;;;-0.50;99.90;;;;;;5093662;28;20551;-77
2022/11/20 07:31:21;;;;;;;19.15;10.55;;;-0.40;99.90;;;;;;5093866;28;20135;-76
2022/11/20 07:33:46;;;;;;;19.27;10.75;;;-0.40;99.90;;;;;;5093229;28;20052;-77
2022/11/20 07:36:12;;;;;;;16.77;10.27;;;-0.40;99.90;;;;;;5075951;28;20044;-76
2022/11/20 07:38:38;;;;;;;17.20;11.48;;;-0.20;99.90;;;;;;5093866;28;20050;-77
2022/11/20 07:41:03;;;;;;;16.42;10.52;;;-0.40;99.90;;;;;;5094406;28;20054;-76
2022/11/20 07:43:30;;;;;;;17.77;11.27;;;-0.40;99.90;;;;;;5093650;28;20039;-77
2022/11/20 07:45:56;;;;;;;16.20;9.93;;;-0.40;99.90;;;;;;5093658;28;20093;-76
2022/11/20 07:48:22;;;;;;;16.27;10.10;;;-0.40;99.90;;;;;;5093573;28;20089;-77
2022/11/20 07:50:47;;;;;;;18.30;10.85;;;-0.30;99.90;;;;;;5093641;28;20044;-77
2022/11/20 07:53:13;;;;;;;19.55;10.02;;;-0.30;99.90;;;;;;5093934;28;20090;-77
2022/11/20 07:55:39;;;;;;;20.52;10.82;;;-0.30;99.90;;;;;;5093625;28;20044;-77
2022/11/20 07:58:05;;;;;;;16.15;10.02;;;-0.30;99.90;;;;;;5093525;28;20079;-79
2022/11/20 08:00:33;;;;;;;16.52;10.52;;;-0.30;99.90;;;;;;5093880;28;20090;-76
2022/11/20 08:03:02;;;;;;;20.65;11.25;;;-0.30;99.90;;;;;;5093287;28;20510;-77
2022/11/20 08:05:27;;;;;;;17.45;10.63;;;-0.20;99.90;;;;;;5093648;28;20044;-77
2022/11/20 08:07:53;;;;;;;16.30;10.48;;;-0.20;99.90;;;;;;5093382;28;20037;-76
2022/11/20 08:10:18;;;;;;;18.40;11.38;;;-0.20;99.90;;;;;;5094257;28;20127;-77
2022/11/20 08:15:33;;;;;;;20.25;11.00;;;-0.10;99.90;;;;;;5097707;28;20055;-76
2022/11/20 08:18:04;;;;;;;19.60;10.68;;;-0.10;99.90;;;;;;5097637;28;20384;-76
2022/11/20 08:20:30;;;;;;;18.00;11.27;;;-0.10;99.90;;;;;;5097538;28;20494;-77
2022/11/20 08:23:02;;;;;;;20.95;11.85;;;-0.10;99.90;;;;;;5097545;28;20079;-80
2022/11/20 08:25:28;;;;;;;18.08;11.15;;;-0.10;99.90;;;;;;5097664;28;20059;-78
2022/11/20 08:27:56;;;;;;;18.77;11.70;;;-0.10;99.90;;;;;;5097398;28;20072;-76
2022/11/20 08:30:22;;;;;;;19.02;11.40;;;-0.10;99.90;;;;;;5097531;28;20494;-78
2022/11/20 08:32:47;;;;;;;18.95;11.25;;;0.00;99.90;;;;;;5097287;28;20136;-76
2022/11/20 08:35:35;;;;;;;15.48;10.60;;;0.00;99.90;;;;;;5096369;28;20044;-77
2022/11/20 08:38:02;;;;;;;16.63;10.45;;;0.00;99.90;;;;;;5094828;28;20176;-76
2022/11/20 08:40:28;;;;;;;19.17;11.18;;;0.00;99.90;;;;;;5094217;28;20400;-76
2022/11/20 08:42:53;;;;;;;18.40;11.60;;;0.00;99.90;;;;;;5097426;28;20101;-77
2022/11/20 08:45:19;;;;;;;20.55;11.63;;;0.00;99.90;;;;;;5095588;28;20051;-78
2022/11/20 08:47:45;;;;;;;16.63;10.70;;;0.00;99.90;;;;;;5095355;28;20123;-78
2022/11/20 08:50:14;;;;;;;14.55;9.43;;;0.10;99.90;;;;;;5096053;28;20476;-78
2022/11/20 08:52:39;;;;;;;17.27;10.45;;;-0.70;99.90;;;;;;5096449;28;20051;-77
2022/11/20 08:55:06;;;;;;;15.82;10.45;;;0.30;99.90;;;;;;5096978;28;20075;-76
2022/11/20 08:57:35;;;;;;;15.20;9.93;;;0.30;99.90;;;;;;5096901;28;20080;-77
2022/11/20 09:00:03;;;;;;;16.17;10.50;;;0.20;99.90;;;;;;5096670;28;20036;-76
2022/11/20 09:02:28;;;;;;;15.13;9.82;;;0.20;99.90;;;;;;5097339;28;20438;-78
2022/11/20 09:04:54;;;;;;;16.23;10.15;;;0.30;99.90;;;;;;5096681;28;20040;-77
2022/11/20 09:07:20;;;;;;;17.80;10.13;;;0.30;99.90;;;;;;5096574;28;20044;-76
2022/11/20 09:09:46;;;;;;;19.80;11.07;;;0.30;99.90;;;;;;5096732;28;20143;-77
2022/11/20 09:12:11;;;;;;;17.13;11.05;;;0.40;99.90;;;;;;5096602;28;20112;-78
2022/11/20 09:14:37;;;;;;;16.50;10.50;;;0.50;99.90;;;;;;5096281;28;20083;-78
2022/11/20 09:17:02;;;;;;;19.38;11.63;;;0.50;99.90;;;;;;5096572;28;20040;-76
2022/11/20 09:19:28;;;;;;;19.05;11.15;;;0.60;99.90;;;;;;5096927;28;20384;-76
2022/11/20 09:21:53;;;;;;;18.33;12.15;;;0.60;99.90;;;;;;5095431;28;20056;-78
2022/11/20 09:24:20;;;;;;;17.00;10.73;;;0.60;99.90;;;;;;5096227;28;20064;-77
2022/11/20 09:26:46;;;;;;;;;;;0.70;99.90;;;;;;5096696;28;20054;-78
2022/11/20 09:29:11;;;;;;;16.80;10.55;;;0.70;99.90;;;;;;5096250;28;19920;-77
2022/11/20 09:31:37;;;;;;;15.57;9.60;;;0.70;99.90;;;;;;5096287;28;20127;-77
2022/11/20 09:34:03;;;;;;;19.02;10.15;;;0.70;99.90;;;;;;5096199;28;20065;-77
2022/11/20 09:36:28;;;;;;;19.35;9.77;;;0.70;99.90;;;;;;5096137;28;20127;-77
2022/11/20 09:38:56;;;;;;;16.30;10.13;;;0.80;99.90;;;;;;5096259;28;20044;-78
2022/11/20 09:41:45;;;;;;;15.98;9.50;;;0.80;99.90;;;;;;5096222;28;20373;-77
2022/11/20 09:44:23;;;;;;;18.52;10.32;;;0.90;99.90;;;;;;5096396;28;20139;-77
2022/11/20 09:46:58;;;;;;;;;;;1.00;99.90;;;;;;5096300;28;20170;-76
2022/11/20 09:49:48;;;;;;;16.17;9.85;;;1.10;99.90;;;;;;5095869;28;19927;-77
2022/11/20 09:52:47;;;;;;;17.92;10.23;;;1.20;99.90;;;;;;5095828;28;20126;-75
2022/11/20 09:55:14;;;;;;;15.85;10.60;;;1.20;99.90;;;;;;5096231;28;20396;-76
2022/11/20 09:57:45;;;;;;;16.27;9.82;;;1.20;99.90;;;;;;5095536;28;20044;-74
2022/11/20 10:00:13;;;;;;;15.45;10.18;;;1.20;99.90;;;;;;5094640;28;20047;-77
2022/11/20 10:02:59;;;;;;;14.65;9.85;;;1.20;99.90;;;;;;5094342;28;20044;-78
2022/11/20 10:05:29;;;;;;;14.13;10.07;;;1.30;99.90;;;;;;5095555;28;20040;-79
2022/11/20 10:08:16;;;;;;;14.40;9.27;;;1.40;99.90;;;;;;5095715;28;20392;-77
2022/11/20 10:11:23;;;;;;;15.70;9.90;;;1.50;99.90;;;;;;5095509;28;20036;-78
2022/11/20 10:14:06;;;;;;;14.00;9.82;;;1.60;99.90;;;;;;5095321;28;20077;-76
2022/11/20 10:16:53;;;;;;;19.00;10.43;;;1.80;99.90;;;;;;5095567;28;20123;-77
2022/11/20 10:19:27;;;;;;;15.20;10.02;;;1.80;99.90;;;;;;5095289;28;20048;-76
2022/11/20 10:21:59;;;;;;;15.30;9.68;;;2.00;99.90;;;;;;5095304;28;20048;-76
2022/11/20 10:24:53;;;;;;;12.80;8.77;;;2.10;99.90;;;;;;5094889;28;20060;-76
2022/11/20 10:27:34;;;;;;;14.20;9.55;;;2.20;99.90;;;;;;5092701;28;20048;-76
2022/11/20 10:30:08;;;;;;;13.30;8.63;;;2.30;99.90;;;;;;5094930;28;20048;-76
2022/11/20 10:32:42;;;;;;;11.00;7.82;;;2.40;99.90;;;;;;5094981;28;20039;-77
2022/11/20 10:35:42;;;;;;;13.00;7.68;;;2.50;99.90;;;;;;5095370;28;20052;-76
2022/11/20 10:38:25;;;;;;;11.40;7.43;;;2.60;99.90;;;;;;5095119;28;20052;-76
2022/11/20 10:43:48;;;;;;;8.80;5.97;;;2.70;99.90;;;;;;5095009;28;20091;-77
2022/11/20 10:46:19;;;;;;;9.10;6.18;;;2.70;99.90;;;;;;5094731;28;20044;-76
2022/11/20 10:48:46;;;;;;;8.57;6.00;;;2.70;99.90;;;;;;5093805;28;20043;-75
2022/11/20 10:51:48;;;;;;;8.93;5.82;;;2.70;99.90;;;;;;5094715;28;20055;-78
2022/11/20 10:54:21;;;;;;;9.02;5.82;;;2.70;99.90;;;;;;5093817;28;20408;-76
2022/11/20 10:57:00;;;;;;;21.80;12.90;;;2.70;99.90;;;;;;5094555;28;20119;-76
2022/11/20 10:59:47;;;;;;;18.75;11.07;;;2.70;99.90;;;;;;5094462;28;20040;-76
2022/11/20 11:02:21;;;;;;;11.48;6.90;;;2.70;99.90;;;;;;5094154;28;20051;-76
2022/11/20 11:04:51;;;;;;;23.15;12.05;;;2.70;99.90;;;;;;5094505;28;20047;-78
2022/11/20 11:07:39;;;;;;;21.80;11.55;;;2.70;99.90;;;;;;5093230;28;20089;-75
2022/11/20 11:10:18;;;;;;;17.70;11.47;;;2.70;99.90;;;;;;5094241;28;20040;-75
2022/11/20 11:12:47;;;;;;;17.48;10.48;;;2.70;99.90;;;;;;5094769;28;20145;-77
2022/11/20 11:15:27;;;;;;;11.75;8.20;;;2.70;99.90;;;;;;5094124;28;20044;-75
2022/11/20 11:17:53;;;;;;;11.13;7.63;;;2.70;99.90;;;;;;5093718;28;20040;-75
2022/11/20 11:20:21;;;;;;;71.45;32.35;;;2.60;99.90;;;;;;5092855;28;20055;-75
2022/11/20 11:22:48;;;;;;;31.27;15.77;;;2.60;99.90;;;;;;5093698;28;20044;-74
2022/11/20 11:25:26;;;;;;;11.80;7.35;;;2.60;99.90;;;;;;5093487;28;20080;-74
2022/11/20 11:27:53;;;;;;;9.70;6.75;;;2.50;99.90;;;;;;5093799;28;20438;-74
2022/11/20 11:30:20;;;;;;;11.73;6.80;;;2.50;99.90;;;;;;5094226;28;20087;-75
2022/11/20 11:32:45;;;;;;;;;;;2.50;99.90;;;;;;5093317;28;20086;-74
2022/11/20 11:35:28;;;;;;;10.18;7.15;;;2.40;99.90;;;;;;5093943;28;19967;-76
2022/11/20 11:38:16;;;;;;;11.85;7.47;;;2.40;99.90;;;;;;5093899;28;20495;-76
2022/11/20 11:40:43;;;;;;;12.52;6.70;;;2.30;99.90;;;;;;5093909;28;20050;-75
2022/11/20 11:46:25;;;;;;;9.95;6.65;;;2.30;99.90;;;;;;5093035;28;20484;-76
2022/11/20 11:49:01;;;;;;;11.05;6.90;;;2.30;99.90;;;;;;5094007;28;20134;-75
2022/11/20 11:51:49;;;;;;;12.23;7.18;;;2.30;99.90;;;;;;5093649;28;20123;-74
2022/11/20 11:54:28;;;;;;;10.68;7.45;;;2.30;99.90;;;;;;5094094;28;20043;-75
2022/11/20 11:56:54;;;;;;;12.10;7.15;;;2.30;99.90;;;;;;5093530;28;20499;-76
2022/11/20 11:59:28;;;;;;;10.30;6.27;;;2.30;99.90;;;;;;5093658;28;20040;-75
2022/11/20 12:01:59;;;;;;;12.90;7.07;;;2.30;99.90;;;;;;5093612;28;20040;-74
2022/11/20 12:04:46;;;;;;;11.30;6.30;;;2.30;99.90;;;;;;5094219;28;20431;-79
2022/11/20 12:07:32;;;;;;;10.70;6.80;;;2.40;99.90;;;;;;5093670;28;20040;-77
2022/11/20 12:09:58;;;;;;;10.20;6.70;;;2.40;99.90;;;;;;5093519;28;20040;-74
2022/11/20 12:12:40;;;;;;;10.48;7.00;;;2.50;99.90;;;;;;5093595;28;20055;-74
2022/11/20 12:15:12;;;;;;;13.18;7.32;;;2.70;99.90;;;;;;5092481;28;20083;-75
2022/11/20 12:17:38;;;;;;;11.85;7.68;;;2.80;99.90;;;;;;5093746;28;20047;-75
2022/11/20 12:20:12;;;;;;;13.00;7.13;;;2.90;99.90;;;;;;5093605;28;20044;-74
2022/11/20 12:23:09;;;;;;;11.25;7.18;;;3.10;99.90;;;;;;5093563;28;20044;-74
2022/11/20 12:25:36;;;;;;;12.65;8.35;;;3.30;99.90;;;;;;5092976;28;20056;-74
2022/11/20 12:28:23;;;;;;;9.52;7.00;;;3.40;99.90;;;;;;5093068;28;20032;-75
2022/11/20 12:31:20;;;;;;;11.30;7.47;;;3.50;99.90;;;;;;5093170;28;20070;-75
2022/11/20 12:34:09;;;;;;;11.88;7.88;;;3.60;99.90;;;;;;5088853;28;20488;-75
2022/11/20 12:36:55;;;;;;;12.65;7.82;;;3.70;99.90;;;;;;5093695;28;20047;-73
2022/11/20 12:39:33;;;;;;;11.15;7.68;;;3.60;99.90;;;;;;5093279;28;20044;-76
2022/11/20 12:45:35;;;;;;;12.57;8.15;;;3.30;99.90;;;;;;5093076;28;20055;-74
2022/11/20 12:48:28;;;;;;;11.95;8.10;;;3.20;99.90;;;;;;5092918;28;20177;-74
2022/11/20 12:51:13;;;;;;;11.60;7.53;;;3.10;99.90;;;;;;5093014;28;20044;-74
2022/11/20 12:53:56;;;;;;;13.75;8.43;;;3.00;99.90;;;;;;5075053;28;20458;-74
2022/11/20 12:56:28;;;;;;;12.95;7.88;;;2.90;99.90;;;;;;5094077;28;20169;-76
2022/11/20 12:59:24;;;;;;;11.50;7.57;;;2.80;99.90;;;;;;5096674;28;20044;-73
2022/11/20 13:01:58;;;;;;;11.20;8.10;;;2.70;99.90;;;;;;5096692;28;20055;-74
2022/11/20 13:04:35;;;;;;;13.73;8.60;;;2.70;99.90;;;;;;5096708;28;20048;-75